Latest Weather Observations for Esperance Airport

IDW60801

Issued at 2:05 am WST Monday 21 April 2014 (issued every 30 minutes, with the page automatically refreshed every 10 minutes)

About weather observations | Map of weather stations | Latest weather observations for WA | Other Formats
Station Details ID: 009542 Name: ESPERANCE AERO Lat: -33.68 Lon: 121.83 Height: 142.0 m
Data from the previous 72 hours. | See also: Recent months at Esperance Airport
Date/Time
WST
Temp
°C
App
Temp
°C
Dew
Point
Rel
Hum
%
Delta-T
°C
Wind Press
QNH
hPa
Press
MSL
hPa
Rain
since 9 am
mm
Dir
 
Spd
km/h
Gust
km/h
Spd
kts
Gust
kts
21/02:00am 13.0 11.5 11.9 93 0.6 WSW 11 15 6 8 1014.4 - 0.0
21/01:30am 13.6 12.0 12.7 94 0.5 W 13 15 7 8 1014.4 - 0.0
21/01:00am 13.3 12.8 12.5 95 0.4 W 7 9 4 5 1014.1 - 0.0
21/12:30am 12.2 11.3 11.4 95 0.4 WNW 7 9 4 5 1014.2 - 0.0
21/12:00am 13.0 12.3 12.1 94 0.5 W 7 9 4 5 1014.0 1013.6 0.0
 
Date/Time
WST
Temp
°C
App
Temp
°C
Dew
Point
Rel
Hum
%
Delta-T
°C
Wind Press
QNH
hPa
Press
MSL
hPa
Rain
since 9 am
mm
Dir
 
Spd
km/h
Gust
km/h
Spd
kts
Gust
kts
20/11:30pm 12.6 11.9 11.3 92 0.7 WSW 6 7 3 4 1013.8 - 0.0
20/11:00pm 13.3 12.8 12.2 93 0.6 WSW 6 7 3 4 1013.9 - 0.0
20/10:30pm 13.3 14.0 12.2 93 0.6 CALM 0 0 0 0 1014.3 - 0.0
20/10:00pm 13.4 14.1 12.3 93 0.6 CALM 0 0 0 0 1014.2 - 0.0
20/09:30pm 13.4 14.0 11.8 90 0.9 CALM 0 0 0 0 1014.5 - 0.0
20/09:00pm 14.6 14.2 13.0 90 0.9 SSE 7 9 4 5 1014.4 1014.1 0.0
20/08:30pm 15.0 14.8 13.5 91 0.8 SSE 7 7 4 4 1014.2 - 0.0
20/08:00pm 14.6 14.2 13.1 91 0.8 S 7 9 4 5 1014.2 - 0.0
20/07:30pm 14.9 14.6 13.3 90 0.9 S 7 9 4 5 1014.4 - 0.0
20/07:00pm 15.2 14.9 13.4 89 1.0 S 7 9 4 5 1014.4 - 0.0
20/06:30pm 15.8 15.2 13.6 87 1.2 SSE 9 11 5 6 1013.9 - 0.0
20/06:00pm 16.4 15.6 13.9 85 1.4 SSE 11 13 6 7 1013.6 1013.2 0.0
20/05:30pm 17.0 15.8 13.9 82 1.8 SSE 13 15 7 8 1013.2 - 0.0
20/05:00pm 17.9 16.2 13.6 76 2.5 SSE 15 19 8 10 1013.0 - 0.0
20/04:30pm 18.5 16.8 13.6 73 2.8 SSE 15 20 8 11 1012.9 - 0.0
20/04:00pm 18.8 16.3 14.1 74 2.7 S 20 28 11 15 1012.8 - 0.0
20/03:30pm 20.4 18.0 13.8 66 3.8 SSE 19 24 10 13 1012.6 - 0.0
20/03:00pm 20.2 17.8 13.9 67 3.7 SSE 19 28 10 15 1012.5 1012.1 0.0
20/02:30pm 20.5 19.6 13.7 65 3.9 SSE 11 19 6 10 1012.4 - 0.0
20/02:00pm 19.7 18.2 14.1 70 3.3 SE 15 19 8 10 1012.3 - 0.0
20/01:30pm 20.3 18.4 14.2 68 3.6 SE 17 22 9 12 1012.4 - 0.0
20/01:00pm 20.3 18.9 14.4 69 3.5 SSE 15 19 8 10 1012.6 - 0.0
20/12:30pm 19.8 18.4 14.6 72 3.0 SSE 15 19 8 10 1013.0 - 0.0
20/12:00pm 19.7 18.4 14.9 74 2.8 SSE 15 20 8 11 1013.4 1013.0 0.0
20/11:30am 19.0 17.5 15.3 79 2.2 SSE 17 22 9 12 1013.8 - 0.0
20/11:00am 18.4 16.5 15.3 82 1.8 S 19 22 10 12 1014.4 - 0.0
20/10:30am 18.5 17.0 15.2 81 1.9 S 17 20 9 11 1014.5 - 0.0
20/10:00am 19.3 19.3 15.2 77 2.4 ESE 9 13 5 7 1014.6 - 0.0
20/09:30am 18.4 17.6 15.1 81 1.9 SE 13 17 7 9 1014.8 - 0.0
20/09:24am 18.2 16.9 14.9 81 1.9 SE 15 19 8 10 1014.9 - 0.0
20/09:00am 17.8 17.4 15.1 84 1.6 SE 11 13 6 7 1015.1 1014.8 0.0
20/08:52am 17.7 17.3 15.1 85 1.5 SE 11 13 6 7 1015.1 - 0.0
20/08:43am 17.5 17.5 15.1 86 1.4 SE 9 13 5 7 1015.1 - 0.0
20/08:30am 17.3 17.3 15.3 88 1.2 SSE 9 13 5 7 1015.2 - 0.0
20/08:00am 16.8 16.7 15.0 89 1.0 ESE 9 13 5 7 1015.2 - 0.0
20/07:30am 16.5 17.3 14.7 89 1.0 SSE 4 9 2 5 1015.4 - 0.0
20/07:00am 16.1 17.5 14.5 90 0.9 CALM 0 0 0 0 1015.3 - 0.0
20/06:34am 15.8 17.1 14.2 90 0.9 CALM 0 0 0 0 1015.1 - 0.0
20/06:30am 15.8 17.1 14.2 90 0.9 CALM 0 0 0 0 1015.1 - 0.0
20/06:00am 15.5 16.7 13.9 90 0.9 CALM 0 0 0 0 1015.1 1014.8 0.0
20/05:33am 15.5 16.7 13.9 90 0.9 CALM 0 0 0 0 1015.2 - 0.0
20/05:30am 15.5 16.7 13.9 90 0.9 CALM 0 6 0 3 1015.2 - 0.0
20/05:12am 15.6 16.9 14.1 91 0.9 CALM 0 0 0 0 1015.2 - 0.0
20/05:00am 15.4 16.3 13.9 91 0.9 S 2 6 1 3 1015.1 - 0.0
20/04:58am 15.4 16.3 13.9 91 0.9 S 2 6 1 3 1015.2 - 0.0
20/04:48am 15.3 15.4 13.8 91 0.8 S 6 7 3 4 1015.2 - 0.0
20/04:40am 15.3 15.4 13.8 91 0.8 S 6 7 3 4 1015.2 - 0.0
20/04:30am 15.4 15.5 13.9 91 0.9 SSE 6 7 3 4 1015.1 - 0.0
20/04:17am 15.4 15.5 13.9 91 0.9 SSE 6 7 3 4 1015.1 - 0.0
20/04:16am 15.4 15.5 13.9 91 0.9 SSE 6 7 3 4 1015.1 - 0.0
20/04:00am 15.5 15.6 13.9 90 0.9 SE 6 6 3 3 1015.1 - 0.0
20/03:59am 15.5 15.6 13.9 90 0.9 SE 6 6 3 3 1015.1 - 0.0
20/03:54am 15.5 15.6 13.9 90 0.9 SE 6 6 3 3 1015.1 - 0.0
20/03:37am 15.5 15.6 13.9 90 0.9 SE 6 7 3 4 1015.1 - 0.0
20/03:30am 15.6 15.5 14.0 90 0.9 SE 7 9 4 5 1015.1 - 0.0
20/03:00am 15.5 15.4 14.0 91 0.9 SE 7 9 4 5 1015.2 1014.9 0.0
20/02:30am 14.9 14.6 13.4 91 0.8 SE 7 9 4 5 1015.4 - 0.0
20/02:00am 14.9 14.6 13.3 90 0.9 ESE 7 9 4 5 1015.6 - 0.0
20/01:30am 15.5 14.9 13.5 88 1.1 ESE 9 13 5 7 1015.9 - 0.0
20/01:00am 15.7 15.2 13.7 88 1.1 SE 9 11 5 6 1016.1 - 0.0
20/12:30am 15.8 15.3 13.8 88 1.1 ESE 9 13 5 7 1016.1 - 0.0
20/12:00am 15.4 14.1 13.6 89 1.0 ESE 13 17 7 9 1016.1 1015.8 0.0
 
Date/Time
WST
Temp
°C
App
Temp
°C
Dew
Point
Rel
Hum
%
Delta-T
°C
Wind Press
QNH
hPa
Press
MSL
hPa
Rain
since 9 am
mm
Dir
 
Spd
km/h
Gust
km/h
Spd
kts
Gust
kts
19/11:30pm 15.4 14.4 13.4 88 1.1 ESE 11 15 6 8 1016.4 - 0.0
19/11:00pm 15.8 14.5 13.6 87 1.2 SE 13 19 7 10 1016.5 - 0.0
19/10:47pm 16.0 14.7 13.8 87 1.2 ESE 13 17 7 9 1016.5 - 0.0
19/10:30pm 16.5 15.3 14.0 85 1.4 ESE 13 17 7 9 1016.9 - 0.0
19/10:00pm 17.0 15.1 14.1 83 1.7 SE 17 22 9 12 1017.1 - 0.0
19/09:30pm 17.2 15.3 14.3 83 1.7 SE 17 24 9 13 1017.4 - 0.0
19/09:00pm 17.2 15.0 14.5 84 1.6 SSE 19 28 10 15 1017.3 1016.9 0.0
19/08:52pm 17.1 15.4 14.6 85 1.4 SSE 17 28 9 15 1017.2 - 0.0
19/08:30pm 17.1 14.7 14.4 84 1.6 SSE 20 28 11 15 1017.1 - 0.0
19/08:02pm 17.2 15.0 14.8 86 1.4 SSE 20 28 11 15 1017.0 - 0.0
19/08:00pm 17.2 15.0 14.8 86 1.4 SSE 20 28 11 15 1016.9 - 0.0
19/07:30pm 17.4 15.2 15.0 86 1.4 SSE 20 30 11 16 1016.9 - 0.0
19/07:13pm 17.3 15.2 15.1 87 1.3 SSE 20 28 11 15 1016.9 - 0.0
19/07:00pm 17.4 14.9 15.2 87 1.3 SSE 22 28 12 15 1016.7 - 0.0
19/06:59pm 17.4 14.8 15.0 86 1.4 SSE 22 28 12 15 1016.7 - 0.0
19/06:30pm 17.5 16.4 15.3 87 1.3 SSE 15 19 8 10 1016.5 - 0.0
19/06:19pm 17.4 16.3 15.2 87 1.3 SSE 15 19 8 10 1016.3 - 0.0
19/06:00pm 17.3 15.3 14.9 86 1.4 SSE 19 28 10 15 1016.1 1015.8 0.0
19/05:55pm 17.5 15.4 15.1 86 1.4 SSE 20 28 11 15 1016.0 - 0.0
19/05:30pm 17.9 15.0 15.0 83 1.7 S 24 32 13 17 1015.9 - 0.0
19/05:26pm 18.0 15.0 14.9 82 1.8 S 24 32 13 17 1015.9 - 0.0
19/05:00pm 18.5 14.7 14.8 79 2.2 S 28 33 15 18 1015.7 - 0.0
19/04:30pm 19.5 16.0 14.5 73 2.9 S 26 30 14 16 1015.8 - 0.0
19/04:00pm 19.6 15.9 14.0 70 3.2 S 26 33 14 18 1015.8 - 0.0
19/03:30pm 21.4 18.7 14.6 65 4.0 SSE 22 33 12 18 1015.7 - 0.0
19/03:00pm 20.9 17.8 14.5 67 3.8 S 24 35 13 19 1015.7 1015.4 0.0
19/02:30pm 21.7 18.3 13.6 60 4.7 S 24 33 13 18 1015.4 - 0.0
19/02:00pm 22.3 18.6 13.9 59 4.9 S 26 32 14 17 1015.2 - 0.0
19/01:30pm 23.0 19.8 14.3 58 5.1 SSW 24 32 13 17 1015.1 - 0.0
19/01:00pm 23.7 21.0 13.6 53 5.9 SSW 20 28 11 15 1015.3 - 0.0
19/12:30pm 23.1 20.6 13.6 55 5.6 S 19 22 10 12 1015.7 - 0.0
19/12:00pm 23.0 20.9 13.5 55 5.5 SSW 17 26 9 14 1016.0 1015.7 0.0
19/11:30am 23.7 21.2 13.6 53 5.9 SSW 19 26 10 14 1016.4 - 0.0
19/11:00am 22.4 20.5 12.9 55 5.5 SW 15 22 8 12 1016.7 - 0.0
19/10:30am 21.8 19.4 12.6 56 5.3 SW 17 22 9 12 1017.0 - 0.0
19/10:00am 21.5 19.5 12.6 57 5.1 WSW 15 20 8 11 1017.2 - 0.0
19/09:30am 20.8 18.8 12.8 60 4.6 W 15 20 8 11 1017.4 - 0.0
19/09:00am 19.7 17.3 12.5 63 4.1 W 17 20 9 11 1017.8 1017.4 0.0
19/08:30am 18.0 16.4 12.7 71 3.0 WNW 13 17 7 9 1017.9 - 0.0
19/08:00am 15.4 14.6 12.9 85 1.4 N 9 13 5 7 1017.9 - 0.0
19/07:30am 13.0 12.5 12.5 97 0.3 ENE 7 9 4 5 1017.7 - 0.0
19/07:00am 12.6 12.0 12.3 98 0.2 ENE 7 11 4 6 1017.6 - 0.0
19/06:30am 11.5 10.6 11.2 98 0.2 E 7 9 4 5 1017.3 - 0.0
19/06:00am 11.3 10.2 10.8 97 0.3 E 7 11 4 6 1017.2 1016.8 0.0
19/05:30am 11.8 10.1 11.3 97 0.3 E 11 13 6 7 1017.2 - 0.0
19/05:00am 11.7 10.0 11.2 97 0.3 E 11 17 6 9 1017.4 - 0.0
19/04:30am 11.7 9.6 11.1 96 0.3 SE 13 17 7 9 1017.7 - 0.0
19/04:00am 12.1 10.5 11.5 96 0.3 E 11 15 6 8 1017.6 - 0.0
19/03:30am 12.1 10.4 11.2 94 0.5 ESE 11 13 6 7 1017.9 - 0.0
19/03:00am 12.6 10.9 11.3 92 0.7 E 11 15 6 8 1017.9 1017.5 0.0
19/02:30am 13.1 11.2 11.7 91 0.8 E 13 19 7 10 1018.0 - 0.0
19/02:00am 13.3 11.0 11.9 91 0.8 E 15 19 8 10 1018.1 - 0.0
19/01:30am 13.7 11.4 11.9 89 1.0 E 15 22 8 12 1018.4 - 0.0
19/01:00am 14.1 11.9 12.1 88 1.1 E 15 19 8 10 1019.0 - 0.0
19/12:30am 14.5 11.6 12.2 86 1.3 E 19 26 10 14 1019.1 - 0.0
19/12:00am 14.7 11.8 12.2 85 1.4 ENE 19 24 10 13 1019.3 1018.9 0.0
 
Date/Time
WST
Temp
°C
App
Temp
°C
Dew
Point
Rel
Hum
%
Delta-T
°C
Wind Press
QNH
hPa
Press
MSL
hPa
Rain
since 9 am
mm
Dir
 
Spd
km/h
Gust
km/h
Spd
kts
Gust
kts
18/11:30pm 14.8 12.2 12.1 84 1.5 ENE 17 26 9 14 1019.6 - 0.0
18/11:00pm 14.9 12.4 12.2 84 1.5 ENE 17 26 9 14 1019.7 - 0.0
18/10:30pm 15.2 12.6 12.1 82 1.7 ENE 17 28 9 15 1020.1 - 0.0
18/10:00pm 15.3 12.7 12.1 81 1.8 E 17 24 9 13 1020.5 - 0.0
18/09:30pm 15.5 12.5 11.9 79 2.0 E 19 28 10 15 1020.8 - 0.0
18/09:00pm 15.6 12.3 11.6 77 2.2 E 20 28 11 15 1021.0 1020.7 0.0
18/08:30pm 15.7 12.3 11.3 75 2.4 E 20 26 11 14 1021.0 - 0.0
18/08:00pm 15.7 12.3 11.1 74 2.5 E 20 28 11 15 1021.1 - 0.0
18/07:30pm 15.9 12.4 10.9 72 2.7 E 20 28 11 15 1021.0 - 0.0
18/07:00pm 16.1 12.2 10.8 71 2.8 E 22 30 12 16 1020.9 - 0.0
18/06:30pm 16.3 12.3 10.6 69 3.0 ESE 22 26 12 14 1020.9 - 0.0
18/06:00pm 16.8 12.8 10.6 67 3.3 E 22 33 12 18 1020.7 1020.4 0.0
18/05:30pm 17.0 12.7 10.8 67 3.3 ESE 24 30 13 16 1020.7 - 0.0
18/05:00pm 17.7 12.7 10.8 64 3.7 ESE 28 33 15 18 1020.5 - 0.0
18/04:30pm 19.3 13.8 10.6 57 4.7 ESE 30 41 16 22 1020.4 - 0.0
18/04:00pm 19.9 14.8 10.6 55 5.1 SE 28 37 15 20 1020.5 - 0.0
18/03:30pm 21.4 16.9 11.4 53 5.6 SE 26 33 14 18 1020.6 - 0.0
18/03:00pm 21.0 15.6 10.8 52 5.6 SE 30 39 16 21 1020.8 1020.5 0.0
18/02:30pm 22.7 18.2 11.4 49 6.4 SE 26 35 14 19 1021.1 - 0.0
18/02:00pm 22.5 18.8 11.6 50 6.1 SE 22 32 12 17 1021.3 - 0.0
18/01:30pm 23.5 21.4 9.9 42 7.5 ESE 11 19 6 10 1021.7 - 0.0
18/01:00pm 23.5 20.9 10.6 44 7.2 E 15 20 8 11 1022.1 - 0.0
18/12:30pm 22.7 21.1 10.2 45 6.9 ENE 9 19 5 10 1022.8 - 0.0
18/12:00pm 22.0 19.6 10.2 47 6.4 ENE 13 20 7 11 1023.4 1023.1 0.0
18/11:30am 20.0 17.9 9.6 51 5.6 NE 11 20 6 11 1024.0 - 0.0
18/11:00am 20.3 17.7 9.5 50 5.8 NNE 13 19 7 10 1024.5 - 0.0
18/10:30am 20.6 17.8 10.1 51 5.7 NE 15 22 8 12 1024.8 - 0.0
18/10:00am 19.2 16.3 11.0 59 4.5 NE 17 22 9 12 1025.1 - 0.0
18/09:30am 19.3 17.0 11.8 62 4.2 NE 15 24 8 13 1025.5 - 0.0
18/09:00am 18.5 15.4 11.6 64 3.8 NNE 19 24 10 13 1025.9 1025.5 0.0
18/08:30am 17.9 15.7 12.1 69 3.2 NNE 15 20 8 11 1026.0 - 0.0
18/08:00am 16.1 14.3 12.1 77 2.2 NNE 13 19 7 10 1025.9 - 0.0
18/07:30am 15.0 13.8 12.7 86 1.3 NNE 11 15 6 8 1025.9 - 0.0
18/07:00am 14.2 13.2 12.4 89 1.0 N 9 13 5 7 1025.7 - 0.0
18/06:30am 13.7 13.1 12.3 91 0.8 N 7 9 4 5 1025.5 - 0.0
18/06:00am 13.9 12.9 12.3 90 0.9 NNE 9 11 5 6 1025.3 1024.9 0.0
18/05:30am 13.9 13.4 12.5 91 0.8 NNE 7 9 4 5 1025.2 - 0.0
18/05:00am 13.8 13.3 12.5 92 0.7 NNE 7 9 4 5 1025.0 - 0.0
18/04:30am 14.0 13.6 12.9 93 0.6 N 7 9 4 5 1024.8 - 0.0
18/04:00am 14.0 13.8 12.9 93 0.6 N 6 7 3 4 1024.6 - 0.0
18/03:30am 14.5 14.3 12.9 90 0.9 NNE 6 9 3 5 1024.6 - 0.0
18/03:00am 14.1 13.4 13.1 94 0.6 ENE 9 13 5 7 1024.5 1024.1 0.0
18/02:30am 13.4 13.2 12.9 97 0.3 NNE 6 7 3 4 1024.5 - 0.0
18/02:08am 13.4 13.6 12.9 97 0.3 NE 4 7 2 4 1024.5 - 0.0

Other Formats:

Comma delimited format used in spreadsheet applications
http://www.bom.gov.au/fwo/IDW60801/IDW60801.95638.axf

JavaScript Object Notation format (JSON) in row-major order
http://www.bom.gov.au/fwo/IDW60801/IDW60801.95638.json